Beloretsk, Russia
Current Conditions -  °F | °C
As of 10:00 PM on Friday 28 Nov 2014 (Local Time) from UWUU Reporting Station
Overcast Overcast  
Wind Chill: 15°   Ceiling: 1600
Heat Index: 21°   Visibility: 6mi
Dew Point: 18°   Wind: 4mph
Humidity: 86%   Direction: 190°S
Pressure: 30.62"   Gusts: NA
Location:  54.55°N, 56.32°E
Report Text: UWUU 281700Z 19002MPS 9999 OVC016 M06/M08 Q1037 140///60 NOSIGRMK QFE767/1023
Loading
Personal Weather Stations






























Interactive Weather Map New forecast layout! Learn more

10-Day Weather Forecast

Advertisements
Track Severe Weather on mobile